sensor_id;sensor_type;location;lat;lon;timestamp;temperature;humidity
10306;DHT22;5198;52.382;9.020;2023-06-14T00:01:22;18.10;78.60
10306;DHT22;5198;52.382;9.020;2023-06-14T00:05:26;18.10;78.00
10306;DHT22;5198;52.382;9.020;2023-06-14T00:09:31;18.10;77.50
10306;DHT22;5198;52.382;9.020;2023-06-14T00:13:34;18.10;77.60
10306;DHT22;5198;52.382;9.020;2023-06-14T00:17:37;18.10;77.70
10306;DHT22;5198;52.382;9.020;2023-06-14T00:21:42;18.10;78.30
10306;DHT22;5198;52.382;9.020;2023-06-14T00:25:47;18.10;77.70
10306;DHT22;5198;52.382;9.020;2023-06-14T00:29:50;18.00;77.70
10306;DHT22;5198;52.382;9.020;2023-06-14T00:33:53;18.00;78.20
10306;DHT22;5198;52.382;9.020;2023-06-14T00:37:57;17.90;78.30
10306;DHT22;5198;52.382;9.020;2023-06-14T00:42:01;17.90;78.30
10306;DHT22;5198;52.382;9.020;2023-06-14T00:46:04;17.80;78.80
10306;DHT22;5198;52.382;9.020;2023-06-14T00:50:07;17.80;79.20
10306;DHT22;5198;52.382;9.020;2023-06-14T00:54:11;17.70;78.90
10306;DHT22;5198;52.382;9.020;2023-06-14T00:58:14;17.70;78.50
10306;DHT22;5198;52.382;9.020;2023-06-14T01:02:17;17.60;79.00
10306;DHT22;5198;52.382;9.020;2023-06-14T01:06:23;17.60;78.80
10306;DHT22;5198;52.382;9.020;2023-06-14T01:10:34;17.50;79.10
10306;DHT22;5198;52.382;9.020;2023-06-14T01:14:38;17.50;79.40
10306;DHT22;5198;52.382;9.020;2023-06-14T01:18:41;17.40;79.80
10306;DHT22;5198;52.382;9.020;2023-06-14T01:22:52;17.40;79.50
10306;DHT22;5198;52.382;9.020;2023-06-14T01:26:55;17.30;79.70
10306;DHT22;5198;52.382;9.020;2023-06-14T01:31:00;17.20;79.60
10306;DHT22;5198;52.382;9.020;2023-06-14T01:35:06;17.10;79.50
10306;DHT22;5198;52.382;9.020;2023-06-14T01:39:10;17.10;80.20
10306;DHT22;5198;52.382;9.020;2023-06-14T01:43:14;17.00;80.20
10306;DHT22;5198;52.382;9.020;2023-06-14T01:47:17;17.00;81.40
10306;DHT22;5198;52.382;9.020;2023-06-14T01:51:20;16.90;81.10
10306;DHT22;5198;52.382;9.020;2023-06-14T01:55:24;16.90;81.90
10306;DHT22;5198;52.382;9.020;2023-06-14T01:59:27;16.80;81.90
10306;DHT22;5198;52.382;9.020;2023-06-14T02:03:30;16.70;80.30
10306;DHT22;5198;52.382;9.020;2023-06-14T02:07:33;16.60;80.90
10306;DHT22;5198;52.382;9.020;2023-06-14T02:11:38;16.60;80.90
10306;DHT22;5198;52.382;9.020;2023-06-14T02:15:41;16.60;80.40
10306;DHT22;5198;52.382;9.020;2023-06-14T02:19:45;16.50;80.40
10306;DHT22;5198;52.382;9.020;2023-06-14T02:23:48;16.50;80.50
10306;DHT22;5198;52.382;9.020;2023-06-14T02:27:52;16.40;80.60
10306;DHT22;5198;52.382;9.020;2023-06-14T02:31:55;16.40;80.90
10306;DHT22;5198;52.382;9.020;2023-06-14T02:35:58;16.30;81.50
10306;DHT22;5198;52.382;9.020;2023-06-14T02:40:00;16.20;83.80
10306;DHT22;5198;52.382;9.020;2023-06-14T02:44:05;16.20;83.90
10306;DHT22;5198;52.382;9.020;2023-06-14T02:48:08;16.10;85.60
10306;DHT22;5198;52.382;9.020;2023-06-14T02:52:11;16.00;84.60
10306;DHT22;5198;52.382;9.020;2023-06-14T02:56:14;16.00;82.10
10306;DHT22;5198;52.382;9.020;2023-06-14T03:00:20;15.90;82.50
10306;DHT22;5198;52.382;9.020;2023-06-14T03:04:23;15.90;84.70
10306;DHT22;5198;52.382;9.020;2023-06-14T03:08:27;15.80;86.00
10306;DHT22;5198;52.382;9.020;2023-06-14T03:12:30;15.70;86.60
10306;DHT22;5198;52.382;9.020;2023-06-14T03:16:34;15.60;88.40
10306;DHT22;5198;52.382;9.020;2023-06-14T03:20:38;15.60;87.90
10306;DHT22;5198;52.382;9.020;2023-06-14T03:24:42;15.50;88.30
10306;DHT22;5198;52.382;9.020;2023-06-14T03:28:46;15.50;88.40
10306;DHT22;5198;52.382;9.020;2023-06-14T03:32:51;15.40;88.70
10306;DHT22;5198;52.382;9.020;2023-06-14T03:36:54;15.30;89.10
10306;DHT22;5198;52.382;9.020;2023-06-14T03:40:57;15.30;90.20
10306;DHT22;5198;52.382;9.020;2023-06-14T03:45:00;15.20;90.00
10306;DHT22;5198;52.382;9.020;2023-06-14T03:49:04;15.20;89.50
10306;DHT22;5198;52.382;9.020;2023-06-14T03:53:07;15.10;88.60
10306;DHT22;5198;52.382;9.020;2023-06-14T03:57:10;15.10;88.80
10306;DHT22;5198;52.382;9.020;2023-06-14T04:01:13;15.10;88.70
10306;DHT22;5198;52.382;9.020;2023-06-14T04:05:17;15.10;87.90
10306;DHT22;5198;52.382;9.020;2023-06-14T04:09:22;15.10;88.70
10306;DHT22;5198;52.382;9.020;2023-06-14T04:13:26;15.10;88.30
10306;DHT22;5198;52.382;9.020;2023-06-14T04:17:29;15.00;87.20
10306;DHT22;5198;52.382;9.020;2023-06-14T04:21:33;15.10;85.60
10306;DHT22;5198;52.382;9.020;2023-06-14T04:25:36;15.10;85.60
10306;DHT22;5198;52.382;9.020;2023-06-14T04:29:39;15.10;84.60
10306;DHT22;5198;52.382;9.020;2023-06-14T04:33:44;15.20;84.70
10306;DHT22;5198;52.382;9.020;2023-06-14T04:37:50;15.20;84.60
10306;DHT22;5198;52.382;9.020;2023-06-14T04:41:55;15.30;85.60
10306;DHT22;5198;52.382;9.020;2023-06-14T04:46:02;15.40;84.90
10306;DHT22;5198;52.382;9.020;2023-06-14T04:50:07;15.40;85.10
10306;DHT22;5198;52.382;9.020;2023-06-14T04:54:13;15.50;85.00
10306;DHT22;5198;52.382;9.020;2023-06-14T04:58:16;15.60;84.50
10306;DHT22;5198;52.382;9.020;2023-06-14T05:02:19;15.60;84.90
10306;DHT22;5198;52.382;9.020;2023-06-14T05:06:22;15.70;84.60
10306;DHT22;5198;52.382;9.020;2023-06-14T05:10:26;15.80;84.40
10306;DHT22;5198;52.382;9.020;2023-06-14T05:14:29;15.80;84.00
10306;DHT22;5198;52.382;9.020;2023-06-14T05:18:32;15.90;84.00
10306;DHT22;5198;52.382;9.020;2023-06-14T05:22:36;16.00;84.80
10306;DHT22;5198;52.382;9.020;2023-06-14T05:26:41;16.00;85.30
10306;DHT22;5198;52.382;9.020;2023-06-14T05:30:44;16.10;84.30
10306;DHT22;5198;52.382;9.020;2023-06-14T05:34:46;16.10;86.00
10306;DHT22;5198;52.382;9.020;2023-06-14T05:38:49;16.20;87.10
10306;DHT22;5198;52.382;9.020;2023-06-14T05:43:00;16.30;85.60
10306;DHT22;5198;52.382;9.020;2023-06-14T05:47:03;16.30;85.90
10306;DHT22;5198;52.382;9.020;2023-06-14T05:51:06;16.40;87.80
10306;DHT22;5198;52.382;9.020;2023-06-14T05:55:10;16.40;87.30
10306;DHT22;5198;52.382;9.020;2023-06-14T05:59:16;16.50;86.20
10306;DHT22;5198;52.382;9.020;2023-06-14T06:03:19;16.60;85.90
10306;DHT22;5198;52.382;9.020;2023-06-14T06:07:22;16.70;89.10
10306;DHT22;5198;52.382;9.020;2023-06-14T06:11:25;16.70;87.30
10306;DHT22;5198;52.382;9.020;2023-06-14T06:15:39;16.80;89.40
10306;DHT22;5198;52.382;9.020;2023-06-14T06:19:42;16.90;88.30
10306;DHT22;5198;52.382;9.020;2023-06-14T06:23:45;16.90;87.50
10306;DHT22;5198;52.382;9.020;2023-06-14T06:27:48;17.00;89.00
10306;DHT22;5198;52.382;9.020;2023-06-14T06:31:52;17.10;90.00
10306;DHT22;5198;52.382;9.020;2023-06-14T06:35:55;17.20;90.30
10306;DHT22;5198;52.382;9.020;2023-06-14T06:39:58;17.30;89.90
10306;DHT22;5198;52.382;9.020;2023-06-14T06:44:01;17.40;90.20
10306;DHT22;5198;52.382;9.020;2023-06-14T06:48:05;17.50;90.80
10306;DHT22;5198;52.382;9.020;2023-06-14T06:52:08;17.60;90.90
10306;DHT22;5198;52.382;9.020;2023-06-14T06:56:11;17.60;90.10
10306;DHT22;5198;52.382;9.020;2023-06-14T07:00:14;17.70;90.60
10306;DHT22;5198;52.382;9.020;2023-06-14T07:04:19;17.80;90.00
10306;DHT22;5198;52.382;9.020;2023-06-14T07:08:22;17.90;89.90
10306;DHT22;5198;52.382;9.020;2023-06-14T07:12:25;18.00;91.10
10306;DHT22;5198;52.382;9.020;2023-06-14T07:16:28;18.00;90.40
10306;DHT22;5198;52.382;9.020;2023-06-14T07:20:33;18.10;90.20
10306;DHT22;5198;52.382;9.020;2023-06-14T07:24:35;18.20;90.20
10306;DHT22;5198;52.382;9.020;2023-06-14T07:28:38;18.30;90.80
10306;DHT22;5198;52.382;9.020;2023-06-14T07:32:42;18.40;90.40
10306;DHT22;5198;52.382;9.020;2023-06-14T07:36:46;18.60;90.80
10306;DHT22;5198;52.382;9.020;2023-06-14T07:40:49;18.60;90.00
10306;DHT22;5198;52.382;9.020;2023-06-14T07:44:52;18.80;90.90
10306;DHT22;5198;52.382;9.020;2023-06-14T07:48:55;18.80;90.30
10306;DHT22;5198;52.382;9.020;2023-06-14T07:53:00;19.00;90.00
10306;DHT22;5198;52.382;9.020;2023-06-14T07:57:03;19.00;90.40
10306;DHT22;5198;52.382;9.020;2023-06-14T08:01:06;19.20;90.30
10306;DHT22;5198;52.382;9.020;2023-06-14T08:05:09;19.30;90.40
10306;DHT22;5198;52.382;9.020;2023-06-14T08:09:15;19.40;90.40
10306;DHT22;5198;52.382;9.020;2023-06-14T08:13:18;19.60;90.40
10306;DHT22;5198;52.382;9.020;2023-06-14T08:17:21;19.80;90.20
10306;DHT22;5198;52.382;9.020;2023-06-14T08:21:23;19.90;90.50
10306;DHT22;5198;52.382;9.020;2023-06-14T08:25:32;20.10;90.20
10306;DHT22;5198;52.382;9.020;2023-06-14T08:29:34;20.20;90.60
10306;DHT22;5198;52.382;9.020;2023-06-14T08:33:37;20.30;90.00
10306;DHT22;5198;52.382;9.020;2023-06-14T08:37:41;20.40;90.10
10306;DHT22;5198;52.382;9.020;2023-06-14T08:41:46;20.50;90.00
10306;DHT22;5198;52.382;9.020;2023-06-14T08:45:50;20.70;90.30
10306;DHT22;5198;52.382;9.020;2023-06-14T08:49:54;20.80;90.10
10306;DHT22;5198;52.382;9.020;2023-06-14T08:53:59;21.00;89.50
10306;DHT22;5198;52.382;9.020;2023-06-14T08:58:04;21.20;89.90
10306;DHT22;5198;52.382;9.020;2023-06-14T09:02:07;21.30;89.90
10306;DHT22;5198;52.382;9.020;2023-06-14T09:06:14;21.50;89.60
10306;DHT22;5198;52.382;9.020;2023-06-14T09:10:17;21.70;89.20
10306;DHT22;5198;52.382;9.020;2023-06-14T09:14:23;21.90;88.80
10306;DHT22;5198;52.382;9.020;2023-06-14T09:18:33;22.10;88.60
10306;DHT22;5198;52.382;9.020;2023-06-14T09:22:37;22.30;88.70
10306;DHT22;5198;52.382;9.020;2023-06-14T09:26:40;22.40;88.30
10306;DHT22;5198;52.382;9.020;2023-06-14T09:30:44;22.70;88.30
10306;DHT22;5198;52.382;9.020;2023-06-14T09:34:47;22.90;88.70
10306;DHT22;5198;52.382;9.020;2023-06-14T09:38:53;23.10;88.90
10306;DHT22;5198;52.382;9.020;2023-06-14T09:42:56;23.40;88.80
10306;DHT22;5198;52.382;9.020;2023-06-14T09:47:02;23.70;88.30
10306;DHT22;5198;52.382;9.020;2023-06-14T09:51:05;23.90;88.60
10306;DHT22;5198;52.382;9.020;2023-06-14T09:55:10;24.20;87.70
10306;DHT22;5198;52.382;9.020;2023-06-14T09:59:15;24.50;87.30
10306;DHT22;5198;52.382;9.020;2023-06-14T10:03:22;24.70;86.50
10306;DHT22;5198;52.382;9.020;2023-06-14T10:07:27;24.90;86.50
10306;DHT22;5198;52.382;9.020;2023-06-14T10:11:32;25.10;85.70
10306;DHT22;5198;52.382;9.020;2023-06-14T10:15:38;25.30;85.90
10306;DHT22;5198;52.382;9.020;2023-06-14T10:19:48;25.40;85.50
10306;DHT22;5198;52.382;9.020;2023-06-14T10:23:54;25.60;85.10
10306;DHT22;5198;52.382;9.020;2023-06-14T10:28:14;25.80;85.70
10306;DHT22;5198;52.382;9.020;2023-06-14T10:32:17;26.00;85.90
10306;DHT22;5198;52.382;9.020;2023-06-14T10:36:28;26.20;84.10
10306;DHT22;5198;52.382;9.020;2023-06-14T10:40:34;26.40;84.50
10306;DHT22;5198;52.382;9.020;2023-06-14T10:44:41;26.60;84.10
10306;DHT22;5198;52.382;9.020;2023-06-14T10:48:46;26.80;83.30
10306;DHT22;5198;52.382;9.020;2023-06-14T10:52:50;27.10;83.60
10306;DHT22;5198;52.382;9.020;2023-06-14T10:56:53;27.00;83.80
10306;DHT22;5198;52.382;9.020;2023-06-14T11:00:56;27.20;81.90
10306;DHT22;5198;52.382;9.020;2023-06-14T11:04:59;27.30;82.60
10306;DHT22;5198;52.382;9.020;2023-06-14T11:13:39;27.50;82.10
10306;DHT22;5198;52.382;9.020;2023-06-14T11:17:49;27.70;81.30
10306;DHT22;5198;52.382;9.020;2023-06-14T11:21:52;27.80;80.50
10306;DHT22;5198;52.382;9.020;2023-06-14T11:25:55;27.80;81.60
10306;DHT22;5198;52.382;9.020;2023-06-14T11:30:01;28.00;81.10
10306;DHT22;5198;52.382;9.020;2023-06-14T11:34:04;28.10;81.20
10306;DHT22;5198;52.382;9.020;2023-06-14T11:38:09;28.20;82.30
10306;DHT22;5198;52.382;9.020;2023-06-14T11:42:13;28.30;81.20
10306;DHT22;5198;52.382;9.020;2023-06-14T11:46:18;28.50;79.20
10306;DHT22;5198;52.382;9.020;2023-06-14T11:50:27;28.50;79.00
10306;DHT22;5198;52.382;9.020;2023-06-14T11:54:31;28.60;80.30
10306;DHT22;5198;52.382;9.020;2023-06-14T11:58:34;28.60;80.60
10306;DHT22;5198;52.382;9.020;2023-06-14T12:02:38;28.80;81.00
10306;DHT22;5198;52.382;9.020;2023-06-14T12:06:42;28.90;79.60
10306;DHT22;5198;52.382;9.020;2023-06-14T12:10:45;29.00;81.10
10306;DHT22;5198;52.382;9.020;2023-06-14T12:14:49;29.10;81.00
10306;DHT22;5198;52.382;9.020;2023-06-14T12:18:53;29.20;80.00
10306;DHT22;5198;52.382;9.020;2023-06-14T12:22:56;29.20;80.20
10306;DHT22;5198;52.382;9.020;2023-06-14T12:26:59;29.20;79.70
10306;DHT22;5198;52.382;9.020;2023-06-14T12:31:04;29.20;80.30
10306;DHT22;5198;52.382;9.020;2023-06-14T12:35:09;29.30;79.00
10306;DHT22;5198;52.382;9.020;2023-06-14T12:39:11;29.30;78.90
10306;DHT22;5198;52.382;9.020;2023-06-14T12:43:14;29.40;79.60
10306;DHT22;5198;52.382;9.020;2023-06-14T12:47:20;29.50;79.10
10306;DHT22;5198;52.382;9.020;2023-06-14T12:51:25;29.50;79.70
10306;DHT22;5198;52.382;9.020;2023-06-14T12:55:28;29.60;77.60
10306;DHT22;5198;52.382;9.020;2023-06-14T12:59:31;29.60;79.10
10306;DHT22;5198;52.382;9.020;2023-06-14T13:03:34;29.60;78.90
10306;DHT22;5198;52.382;9.020;2023-06-14T13:07:39;29.70;78.20
10306;DHT22;5198;52.382;9.020;2023-06-14T13:11:42;29.70;78.50
10306;DHT22;5198;52.382;9.020;2023-06-14T13:15:47;29.70;79.20
10306;DHT22;5198;52.382;9.020;2023-06-14T13:19:51;29.80;78.40
10306;DHT22;5198;52.382;9.020;2023-06-14T13:23:55;29.80;79.00
10306;DHT22;5198;52.382;9.020;2023-06-14T13:27:58;29.90;78.60
10306;DHT22;5198;52.382;9.020;2023-06-14T13:32:01;29.90;78.50
10306;DHT22;5198;52.382;9.020;2023-06-14T13:36:04;29.90;77.90
10306;DHT22;5198;52.382;9.020;2023-06-14T13:40:09;29.90;78.90
10306;DHT22;5198;52.382;9.020;2023-06-14T13:44:12;29.90;79.20
10306;DHT22;5198;52.382;9.020;2023-06-14T13:48:17;30.00;78.90
10306;DHT22;5198;52.382;9.020;2023-06-14T13:52:21;30.10;79.20
10306;DHT22;5198;52.382;9.020;2023-06-14T13:56:25;30.10;79.10
10306;DHT22;5198;52.382;9.020;2023-06-14T14:00:28;30.10;78.30
10306;DHT22;5198;52.382;9.020;2023-06-14T14:04:31;30.00;79.40
10306;DHT22;5198;52.382;9.020;2023-06-14T14:08:34;30.10;80.10
10306;DHT22;5198;52.382;9.020;2023-06-14T14:12:45;30.20;80.30
10306;DHT22;5198;52.382;9.020;2023-06-14T14:16:50;30.20;79.30
10306;DHT22;5198;52.382;9.020;2023-06-14T14:20:54;30.20;79.70
10306;DHT22;5198;52.382;9.020;2023-06-14T14:24:57;30.20;79.70
10306;DHT22;5198;52.382;9.020;2023-06-14T14:29:02;30.20;78.80
10306;DHT22;5198;52.382;9.020;2023-06-14T14:33:05;30.30;79.10
10306;DHT22;5198;52.382;9.020;2023-06-14T14:37:08;30.30;78.90
10306;DHT22;5198;52.382;9.020;2023-06-14T14:41:11;30.40;80.00
10306;DHT22;5198;52.382;9.020;2023-06-14T14:45:15;30.50;78.80
10306;DHT22;5198;52.382;9.020;2023-06-14T14:49:18;30.50;78.90
10306;DHT22;5198;52.382;9.020;2023-06-14T14:53:20;30.50;78.90
10306;DHT22;5198;52.382;9.020;2023-06-14T14:57:23;30.50;78.80
10306;DHT22;5198;52.382;9.020;2023-06-14T15:01:28;30.40;78.50
10306;DHT22;5198;52.382;9.020;2023-06-14T15:05:31;30.20;78.40
10306;DHT22;5198;52.382;9.020;2023-06-14T15:09:33;30.20;78.90
10306;DHT22;5198;52.382;9.020;2023-06-14T15:13:36;30.30;78.60
10306;DHT22;5198;52.382;9.020;2023-06-14T15:17:40;30.30;79.30
10306;DHT22;5198;52.382;9.020;2023-06-14T15:21:43;30.30;78.00
10306;DHT22;5198;52.382;9.020;2023-06-14T15:25:46;30.20;78.10
10306;DHT22;5198;52.382;9.020;2023-06-14T15:29:49;30.10;77.50
10306;DHT22;5198;52.382;9.020;2023-06-14T15:33:54;29.90;78.00
10306;DHT22;5198;52.382;9.020;2023-06-14T15:37:56;29.90;78.30
10306;DHT22;5198;52.382;9.020;2023-06-14T15:41:59;29.90;78.80
10306;DHT22;5198;52.382;9.020;2023-06-14T15:46:02;30.00;78.50
10306;DHT22;5198;52.382;9.020;2023-06-14T15:50:07;30.10;78.30
10306;DHT22;5198;52.382;9.020;2023-06-14T15:54:10;30.30;78.40
10306;DHT22;5198;52.382;9.020;2023-06-14T15:58:13;30.40;78.60
10306;DHT22;5198;52.382;9.020;2023-06-14T16:02:16;30.30;78.10
10306;DHT22;5198;52.382;9.020;2023-06-14T16:06:20;30.20;77.40
10306;DHT22;5198;52.382;9.020;2023-06-14T16:10:23;30.00;77.60
10306;DHT22;5198;52.382;9.020;2023-06-14T16:14:27;29.80;77.90
10306;DHT22;5198;52.382;9.020;2023-06-14T16:18:30;29.80;79.10
10306;DHT22;5198;52.382;9.020;2023-06-14T16:22:34;29.90;79.70
10306;DHT22;5198;52.382;9.020;2023-06-14T16:26:37;30.20;81.00
10306;DHT22;5198;52.382;9.020;2023-06-14T16:30:40;30.40;81.50
10306;DHT22;5198;52.382;9.020;2023-06-14T16:34:43;30.70;81.50
10306;DHT22;5198;52.382;9.020;2023-06-14T16:38:47;30.80;80.70
10306;DHT22;5198;52.382;9.020;2023-06-14T16:42:50;30.90;80.00
10306;DHT22;5198;52.382;9.020;2023-06-14T16:46:53;30.90;79.20
10306;DHT22;5198;52.382;9.020;2023-06-14T16:50:56;30.80;79.20
10306;DHT22;5198;52.382;9.020;2023-06-14T16:55:00;30.70;78.60
10306;DHT22;5198;52.382;9.020;2023-06-14T16:59:03;30.50;77.10
10306;DHT22;5198;52.382;9.020;2023-06-14T17:03:06;30.30;76.90
10306;DHT22;5198;52.382;9.020;2023-06-14T17:07:10;30.10;76.80
10306;DHT22;5198;52.382;9.020;2023-06-14T17:11:14;29.90;76.90
10306;DHT22;5198;52.382;9.020;2023-06-14T17:15:19;29.80;77.10
10306;DHT22;5198;52.382;9.020;2023-06-14T17:19:22;29.60;77.20
10306;DHT22;5198;52.382;9.020;2023-06-14T17:23:25;29.40;76.80
10306;DHT22;5198;52.382;9.020;2023-06-14T17:27:29;29.10;76.80
10306;DHT22;5198;52.382;9.020;2023-06-14T17:31:32;28.90;76.40
10306;DHT22;5198;52.382;9.020;2023-06-14T17:35:35;28.40;75.90
10306;DHT22;5198;52.382;9.020;2023-06-14T17:39:39;28.30;76.50
10306;DHT22;5198;52.382;9.020;2023-06-14T17:43:44;28.00;76.20
10306;DHT22;5198;52.382;9.020;2023-06-14T17:47:47;27.80;76.50
10306;DHT22;5198;52.382;9.020;2023-06-14T17:51:52;27.50;76.70
10306;DHT22;5198;52.382;9.020;2023-06-14T17:55:55;27.30;76.80
10306;DHT22;5198;52.382;9.020;2023-06-14T18:00:00;27.10;77.20
10306;DHT22;5198;52.382;9.020;2023-06-14T18:04:02;26.90;77.30
10306;DHT22;5198;52.382;9.020;2023-06-14T18:08:05;26.70;77.40
10306;DHT22;5198;52.382;9.020;2023-06-14T18:12:08;26.50;77.70
10306;DHT22;5198;52.382;9.020;2023-06-14T18:16:14;26.40;78.10
10306;DHT22;5198;52.382;9.020;2023-06-14T18:20:21;26.20;77.60
10306;DHT22;5198;52.382;9.020;2023-06-14T18:24:24;26.10;77.60
10306;DHT22;5198;52.382;9.020;2023-06-14T18:28:28;26.00;77.80
10306;DHT22;5198;52.382;9.020;2023-06-14T18:32:33;25.90;78.20
10306;DHT22;5198;52.382;9.020;2023-06-14T18:36:37;25.80;78.50
10306;DHT22;5198;52.382;9.020;2023-06-14T18:40:40;25.70;78.90
10306;DHT22;5198;52.382;9.020;2023-06-14T18:44:43;25.60;79.30
10306;DHT22;5198;52.382;9.020;2023-06-14T18:48:47;25.50;79.30
10306;DHT22;5198;52.382;9.020;2023-06-14T18:52:50;25.40;79.40
10306;DHT22;5198;52.382;9.020;2023-06-14T18:56:53;25.30;80.70
10306;DHT22;5198;52.382;9.020;2023-06-14T19:00:56;25.20;80.50
10306;DHT22;5198;52.382;9.020;2023-06-14T19:05:00;25.10;80.60
10306;DHT22;5198;52.382;9.020;2023-06-14T19:09:06;25.00;81.20
10306;DHT22;5198;52.382;9.020;2023-06-14T19:13:09;24.80;81.20
10306;DHT22;5198;52.382;9.020;2023-06-14T19:17:12;24.70;82.20
10306;DHT22;5198;52.382;9.020;2023-06-14T19:21:18;24.50;82.40
10306;DHT22;5198;52.382;9.020;2023-06-14T19:25:21;24.30;81.40
10306;DHT22;5198;52.382;9.020;2023-06-14T19:29:24;24.20;82.40
10306;DHT22;5198;52.382;9.020;2023-06-14T19:33:28;24.00;81.70
10306;DHT22;5198;52.382;9.020;2023-06-14T19:37:33;23.90;83.00
10306;DHT22;5198;52.382;9.020;2023-06-14T19:41:37;23.70;83.00
10306;DHT22;5198;52.382;9.020;2023-06-14T19:45:41;23.60;82.10
10306;DHT22;5198;52.382;9.020;2023-06-14T19:49:44;23.40;83.90
10306;DHT22;5198;52.382;9.020;2023-06-14T19:53:48;23.20;84.00
10306;DHT22;5198;52.382;9.020;2023-06-14T19:57:51;23.00;84.10
10306;DHT22;5198;52.382;9.020;2023-06-14T20:01:54;22.80;85.20
10306;DHT22;5198;52.382;9.020;2023-06-14T20:05:57;22.70;83.90
10306;DHT22;5198;52.382;9.020;2023-06-14T20:10:01;22.50;85.80
10306;DHT22;5198;52.382;9.020;2023-06-14T20:14:04;22.40;83.50
10306;DHT22;5198;52.382;9.020;2023-06-14T20:18:07;22.20;84.80
10306;DHT22;5198;52.382;9.020;2023-06-14T20:22:10;22.10;84.20
10306;DHT22;5198;52.382;9.020;2023-06-14T20:26:15;22.00;84.80
10306;DHT22;5198;52.382;9.020;2023-06-14T20:30:17;21.90;86.00
10306;DHT22;5198;52.382;9.020;2023-06-14T20:34:20;21.80;87.70
10306;DHT22;5198;52.382;9.020;2023-06-14T20:38:23;21.70;85.90
10306;DHT22;5198;52.382;9.020;2023-06-14T20:42:27;21.60;85.80
10306;DHT22;5198;52.382;9.020;2023-06-14T20:46:32;21.50;87.80
10306;DHT22;5198;52.382;9.020;2023-06-14T20:50:37;21.30;86.40
10306;DHT22;5198;52.382;9.020;2023-06-14T20:54:42;21.20;88.00
10306;DHT22;5198;52.382;9.020;2023-06-14T20:58:47;21.10;86.80
10306;DHT22;5198;52.382;9.020;2023-06-14T21:02:51;21.00;87.50
10306;DHT22;5198;52.382;9.020;2023-06-14T21:06:53;20.90;87.10
10306;DHT22;5198;52.382;9.020;2023-06-14T21:10:57;20.80;88.60
10306;DHT22;5198;52.382;9.020;2023-06-14T21:15:02;20.70;87.20
10306;DHT22;5198;52.382;9.020;2023-06-14T21:19:05;20.60;88.80
10306;DHT22;5198;52.382;9.020;2023-06-14T21:23:08;20.50;87.70
10306;DHT22;5198;52.382;9.020;2023-06-14T21:27:11;20.50;87.70
10306;DHT22;5198;52.382;9.020;2023-06-14T21:31:17;20.30;87.90
10306;DHT22;5198;52.382;9.020;2023-06-14T21:35:20;20.30;87.80
10306;DHT22;5198;52.382;9.020;2023-06-14T21:39:23;20.10;89.40
10306;DHT22;5198;52.382;9.020;2023-06-14T21:43:26;20.00;88.70
10306;DHT22;5198;52.382;9.020;2023-06-14T21:47:30;19.90;88.80
10306;DHT22;5198;52.382;9.020;2023-06-14T21:51:33;19.80;88.10
10306;DHT22;5198;52.382;9.020;2023-06-14T21:55:36;19.70;88.80
10306;DHT22;5198;52.382;9.020;2023-06-14T21:59:39;19.60;88.10
10306;DHT22;5198;52.382;9.020;2023-06-14T22:03:43;19.50;88.20
10306;DHT22;5198;52.382;9.020;2023-06-14T22:07:46;19.40;88.80
10306;DHT22;5198;52.382;9.020;2023-06-14T22:11:49;19.30;88.80
10306;DHT22;5198;52.382;9.020;2023-06-14T22:15:53;19.30;88.20
10306;DHT22;5198;52.382;9.020;2023-06-14T22:19:59;19.10;89.00
10306;DHT22;5198;52.382;9.020;2023-06-14T22:24:07;19.10;88.10
10306;DHT22;5198;52.382;9.020;2023-06-14T22:28:10;19.00;88.90
10306;DHT22;5198;52.382;9.020;2023-06-14T22:32:13;18.90;88.50
10306;DHT22;5198;52.382;9.020;2023-06-14T22:36:18;18.90;87.40
10306;DHT22;5198;52.382;9.020;2023-06-14T22:40:21;18.80;88.20
10306;DHT22;5198;52.382;9.020;2023-06-14T22:44:24;18.70;88.60
10306;DHT22;5198;52.382;9.020;2023-06-14T22:48:30;18.70;89.00
10306;DHT22;5198;52.382;9.020;2023-06-14T22:52:47;18.60;88.60
10306;DHT22;5198;52.382;9.020;2023-06-14T22:56:50;18.50;89.70
10306;DHT22;5198;52.382;9.020;2023-06-14T23:00:55;18.40;90.10
10306;DHT22;5198;52.382;9.020;2023-06-14T23:04:59;18.30;89.90
10306;DHT22;5198;52.382;9.020;2023-06-14T23:09:03;18.20;90.00
10306;DHT22;5198;52.382;9.020;2023-06-14T23:13:06;18.10;88.60
10306;DHT22;5198;52.382;9.020;2023-06-14T23:17:09;18.00;89.40
10306;DHT22;5198;52.382;9.020;2023-06-14T23:21:12;18.00;89.30
10306;DHT22;5198;52.382;9.020;2023-06-14T23:25:19;17.90;89.20
10306;DHT22;5198;52.382;9.020;2023-06-14T23:29:22;17.90;90.10
10306;DHT22;5198;52.382;9.020;2023-06-14T23:33:29;17.80;90.80
10306;DHT22;5198;52.382;9.020;2023-06-14T23:37:32;17.70;89.90
10306;DHT22;5198;52.382;9.020;2023-06-14T23:41:36;17.70;89.20
10306;DHT22;5198;52.382;9.020;2023-06-14T23:45:42;17.60;90.10
10306;DHT22;5198;52.382;9.020;2023-06-14T23:49:47;17.50;90.30
10306;DHT22;5198;52.382;9.020;2023-06-14T23:53:49;17.50;89.90
10306;DHT22;5198;52.382;9.020;2023-06-14T23:57:55;17.40;90.80
